Tucson, AZ (85711)

4:39 AM MST on February 07, 2016 (GMT -0700)
Presidio at Williams Center | | Change Station
CLOSE
Current Station
Personal Weather Station
Location: Tucson, AZ
Elevation: 2572 ft
Nearby Weather Stations

Elev 2572 ft 32.22 °N, 110.88 °W | Updated 3 seconds ago

Partly Cloudy
Partly Cloudy
45.0 °F
Feels Like 45 °F
N
0.2
Wind Variable Wind from East
Gusts 2.5 mph

Today
High -- | Low -- °F
--% Chance of Precip.
Yesterday
High -- | Low -- °F
Precip. -- in
Pressure 30.12 in
Visibility 10.0 miles
Clouds Clear
Windchill 45 °F
Dew Point 9 °F
Humidity 23%
Rainfall 0.00 in
Snow Depth Not available.
7:13 AM 6:02 PM
Waning Crescent, 2% visible
METAR KDMA 071058Z AUTO 12010KT 10SM CLR 10/M13 A3019 RMK AO2 SLP200 T01001132 $
Pressure 30.12 in
Visibility 10.0 miles
Clouds Clear
Windchill 45 °F
Dew Point 9 °F
Humidity 23%
Rainfall 0.00 in
Snow Depth Not available.
7:13 AM 6:02 PM
Waning Crescent, 2% visible
METAR KDMA 071058Z AUTO 12010KT 10SM CLR 10/M13 A3019 RMK AO2 SLP200 T01001132 $

10-Day Weather Forecast

Almanac

Astronomy

Feb. 07, 2016 Rise Set
Actual Time
Civil Twilight
Nautical Twilight
Astronomical Twilight
Moon
Length of Visible Light
Length of Day
Tomorrow will be .
, % of the Moon is Illuminated

Today's Extremes

State Highs State Lows

Community

WunderPhotos

Upload Photos

1,891,168 photos uploaded!

WunderBlog® & News

Nearby

Air Quality

  Air Quality AQ Index Pollutant
Not available.

Snow Depth

Station Depth Elevation

Earthquake Activity

City Distance Mag. Time & Date
Minimum magnitude displayed is 2.5.

Coastal Water Temperatures

Place Temperature

Stations

Nearby Weather Stations

Station Location Temp. Windchill Dew Point Humidity Wind Precip. Elev Updated Type
                   

Watches & Warnings

There are currently no watches in effect.